Cooperstown, North Dakota
Current Conditions -  °F | °C
As of 11:35 AM on Sunday 23 Nov 2014 (Local Time) from KBAC Reporting Station
Light Snow Light Snow  
Wind Chill: 25°   Ceiling: 2400
Heat Index: 36°   Visibility: 10mi
Dew Point: 28°   Wind: 21mph
Humidity: 75%   Direction: 300°WNW
Pressure: 29.47"   Gusts: 30mph
Location:  47.44°N, 98.12°W
Report Text: KBAC 231735Z AUTO 30018G26KT 10SM -SN OVC024 02/M02 A2947 RMK AO2
Loading
Personal Weather Stations






























Interactive Weather Map New forecast layout! Learn more

10-Day Weather Forecast

Advertisements
Track Severe Weather on mobile